Time;durP1;ratioP1;P1;durP2;ratioP2;P2;SDS_P1;SDS_P2;PMS_P1;PMS_P2;Temp;Humidity;BMP_temperature;BMP_pressure;BME280_temperature;BME280_humidity;BME280_pressure;Samples;Min_cycle;Max_cycle;Signal;HPM_P1;HPM_P2
2021/08/19 00:01:35;;;;;;;7.47;3.87;;;;;;;16.79;87.41;99810.25;1674430;85;21048;-70
2021/08/19 00:04:03;;;;;;;5.08;3.87;;;;;;;16.77;88.18;99814.33;1674622;85;21079;-71
2021/08/19 00:06:30;;;;;;;5.67;3.02;;;;;;;16.74;86.95;99818.99;1674904;85;22128;-72
2021/08/19 00:08:56;;;;;;;12.18;4.35;;;;;;;16.72;87.76;99818.23;1674631;84;21154;-70
2021/08/19 00:11:23;;;;;;;8.50;3.80;;;;;;;16.69;88.50;99819.78;1674739;84;21023;-70
2021/08/19 00:13:51;;;;;;;7.83;3.95;;;;;;;16.69;89.72;99808.66;1674435;85;21118;-69
2021/08/19 00:16:19;;;;;;;8.25;4.08;;;;;;;16.67;90.95;99799.94;1674549;85;21087;-72
2021/08/19 00:18:46;;;;;;;6.40;4.12;;;;;;;16.66;91.07;99792.09;1674515;85;21160;-72
2021/08/19 00:21:13;;;;;;;13.03;4.83;;;;;;;16.62;91.34;99786.11;1674700;85;21591;-71
2021/08/19 00:23:40;;;;;;;7.78;4.15;;;;;;;16.62;91.53;99795.91;1674683;85;21063;-71
2021/08/19 00:26:08;;;;;;;6.78;3.42;;;;;;;16.58;90.89;99808.05;1674709;85;21131;-70
2021/08/19 00:28:35;;;;;;;7.70;4.65;;;;;;;16.53;91.59;99806.19;1674561;85;21598;-71
2021/08/19 00:31:03;;;;;;;5.33;3.80;;;;;;;16.50;91.65;99806.40;1674468;85;21105;-73
2021/08/19 00:33:29;;;;;;;8.28;3.80;;;;;;;16.45;91.55;99814.28;1674510;85;21070;-71
2021/08/19 00:35:57;;;;;;;8.03;4.00;;;;;;;16.44;91.92;99808.61;1674646;85;21102;-71
2021/08/19 00:38:24;;;;;;;5.90;3.60;;;;;;;16.40;91.61;99794.66;1674678;85;21061;-71
2021/08/19 00:40:50;;;;;;;8.23;4.22;;;;;;;16.39;92.37;99791.64;1674822;84;21070;-71
2021/08/19 00:43:19;;;;;;;6.00;3.10;;;;;;;16.38;92.43;99799.25;1674511;85;21946;-71
2021/08/19 00:45:47;;;;;;;6.72;3.02;;;;;;;16.35;92.17;99804.75;1674412;85;21055;-70
2021/08/19 00:48:15;;;;;;;6.05;3.50;;;;;;;16.32;92.44;99804.48;1674353;85;21597;-71
2021/08/19 00:50:42;;;;;;;8.55;3.12;;;;;;;16.29;91.83;99799.86;1688582;84;21598;-70
2021/08/19 00:53:11;;;;;;;7.03;3.87;;;;;;;16.25;92.31;99793.04;1702810;83;21074;-70
2021/08/19 00:55:39;;;;;;;5.70;3.20;;;;;;;16.21;92.58;99787.55;1702828;83;21144;-72
2021/08/19 00:58:07;;;;;;;6.33;3.58;;;;;;;16.14;92.36;99787.09;1702929;83;22060;-70
2021/08/19 01:00:33;;;;;;;4.97;3.25;;;;;;;16.08;92.20;99794.13;1702787;83;21015;-72
2021/08/19 01:03:01;;;;;;;4.17;2.00;;;;;;;16.00;91.98;99798.61;1702816;84;21050;-71
2021/08/19 01:05:29;;;;;;;11.40;3.42;;;;;;;15.94;91.56;99791.03;1703048;83;21071;-72
2021/08/19 01:08:01;;;;;;;7.35;3.42;;;;;;;15.98;91.70;99794.36;1703058;84;21114;-69
2021/08/19 01:10:29;;;;;;;8.28;3.40;;;;;;;15.94;90.73;99804.31;1702974;83;21122;-69
2021/08/19 01:12:56;;;;;;;6.78;3.45;;;;;;;15.93;91.57;99801.30;1702833;83;21612;-70
2021/08/19 01:15:24;;;;;;;6.22;2.37;;;;;;;15.88;91.87;99802.08;1702738;83;21046;-70
2021/08/19 01:17:55;;;;;;;4.92;2.80;;;;;;;15.86;91.09;99800.83;1702852;83;21086;-70
2021/08/19 01:20:29;;;;;;;7.80;3.70;;;;;;;15.85;92.15;99796.94;1702316;83;21975;-70
2021/08/19 01:22:57;;;;;;;3.55;2.77;;;;;;;15.82;91.70;99803.78;1702945;83;21035;-69
2021/08/19 01:25:24;;;;;;;9.38;3.22;;;;;;;15.79;92.16;99796.88;1703018;83;21509;-70
2021/08/19 01:27:53;;;;;;;8.45;3.55;;;;;;;15.75;92.48;99790.05;1703085;83;21134;-71
2021/08/19 01:30:21;;;;;;;5.80;2.65;;;;;;;15.71;91.35;99796.05;1696430;83;21496;-71
2021/08/19 01:32:47;;;;;;;8.25;3.12;;;;;;;15.70;91.99;99798.30;1674662;84;21483;-71
2021/08/19 01:35:21;;;;;;;6.22;2.80;;;;;;;15.68;92.01;99796.19;1674325;85;21091;-70
2021/08/19 01:37:49;;;;;;;5.50;3.10;;;;;;;15.67;91.83;99797.63;1700021;84;21102;-70
2021/08/19 01:40:17;;;;;;;8.70;3.33;;;;;;;15.65;92.25;99795.06;1702891;83;21668;-70
2021/08/19 01:42:46;;;;;;;5.50;3.10;;;;;;;15.64;92.21;99796.00;1705585;83;21325;-70
2021/08/19 01:45:16;;;;;;;6.45;3.35;;;;;;;15.62;92.52;99803.23;1705331;84;21532;-70
2021/08/19 01:47:46;;;;;;;6.70;3.37;;;;;;;15.58;92.56;99817.64;1705421;83;21050;-72
2021/08/19 01:50:14;;;;;;;11.90;3.77;;;;;;;15.55;93.05;99816.48;1705483;83;21062;-72
2021/08/19 01:52:42;;;;;;;6.95;3.45;;;;;;;15.51;93.47;99819.81;1705610;83;21050;-73
2021/08/19 01:55:11;;;;;;;7.80;3.58;;;;;;;15.49;93.90;99818.21;1705745;83;21090;-72
2021/08/19 01:57:37;;;;;;;8.45;4.08;;;;;;;15.47;93.93;99828.91;1706065;83;21498;-72
2021/08/19 02:00:06;;;;;;;7.33;3.22;;;;;;;15.44;94.58;99829.11;1705619;84;21059;-73
2021/08/19 02:02:36;;;;;;;6.05;3.20;;;;;;;15.38;94.86;99823.33;1705919;83;21090;-72
2021/08/19 02:05:05;;;;;;;7.65;3.65;;;;;;;15.37;95.27;99827.79;1705655;83;21074;-74
2021/08/19 02:07:33;;;;;;;5.05;2.40;;;;;;;15.39;95.50;99825.02;1705747;83;21593;-72
2021/08/19 02:10:03;;;;;;;6.45;3.58;;;;;;;15.39;95.86;99819.71;1706072;84;21734;-72
2021/08/19 02:12:30;;;;;;;6.75;3.60;;;;;;;15.36;96.14;99817.27;1705868;84;21061;-72
2021/08/19 02:14:56;;;;;;;7.05;3.83;;;;;;;15.37;96.20;99816.30;1705927;83;21062;-71
2021/08/19 02:17:24;;;;;;;5.70;3.98;;;;;;;15.36;96.73;99814.61;1705754;83;21082;-70
2021/08/19 02:19:51;;;;;;;8.18;4.25;;;;;;;15.34;96.90;99818.67;1705827;83;21110;-70
2021/08/19 02:22:19;;;;;;;4.83;3.30;;;;;;;15.33;97.05;99825.42;1705671;83;21145;-70
2021/08/19 02:24:48;;;;;;;4.92;3.80;;;;;;;15.29;97.60;99827.39;1705810;84;21028;-71
2021/08/19 02:27:15;;;;;;;6.50;4.00;;;;;;;15.26;97.21;99828.44;1705784;83;21066;-70
2021/08/19 02:29:41;;;;;;;8.63;4.08;;;;;;;15.25;97.41;99824.09;1705716;84;21107;-68
2021/08/19 02:32:08;;;;;;;7.92;4.40;;;;;;;15.25;97.97;99820.56;1678239;83;21112;-69
2021/08/19 02:34:36;;;;;;;5.87;3.80;;;;;;;15.22;98.56;99824.26;1677236;85;21091;-68
2021/08/19 02:37:02;;;;;;;5.55;4.15;;;;;;;15.18;99.44;99822.73;1677428;85;21094;-69
2021/08/19 02:39:29;;;;;;;6.72;3.62;;;;;;;15.13;99.90;99826.14;1677468;85;21137;-69
2021/08/19 02:41:56;;;;;;;10.08;4.40;;;;;;;15.10;100.00;99835.63;1686465;84;21589;-70
2021/08/19 02:44:23;;;;;;;9.83;4.87;;;;;;;15.10;100.00;99842.26;1705487;83;21621;-69
2021/08/19 02:46:50;;;;;;;6.70;4.45;;;;;;;15.08;100.00;99839.69;1705863;83;21375;-69
2021/08/19 02:49:16;;;;;;;9.18;4.45;;;;;;;15.09;100.00;99841.86;1705432;84;21056;-69
2021/08/19 02:51:43;;;;;;;12.03;4.50;;;;;;;15.07;100.00;99839.32;1705674;84;21130;-69
2021/08/19 02:54:10;;;;;;;8.35;4.17;;;;;;;15.08;100.00;99840.16;1705657;84;21090;-70
2021/08/19 02:56:40;;;;;;;5.80;4.25;;;;;;;15.08;100.00;99840.16;1705746;84;21105;-68
2021/08/19 02:59:06;;;;;;;10.63;4.55;;;;;;;15.09;100.00;99847.16;1705671;83;21160;-68
2021/08/19 03:01:34;;;;;;;12.37;4.83;;;;;;;15.10;100.00;99855.52;1705572;84;21118;-70
2021/08/19 03:04:00;;;;;;;7.20;4.30;;;;;;;15.10;100.00;99848.89;1705282;83;21051;-68
2021/08/19 03:06:27;;;;;;;6.50;3.72;;;;;;;15.09;100.00;99848.05;1705532;83;21140;-68
2021/08/19 03:08:54;;;;;;;6.53;4.40;;;;;;;15.13;100.00;99852.67;1705821;83;21122;-69
2021/08/19 03:11:22;;;;;;;6.20;3.90;;;;;;;15.14;100.00;99842.91;1705571;83;21067;-67
2021/08/19 03:13:48;;;;;;;8.28;4.30;;;;;;;15.12;100.00;99843.50;1705657;84;21608;-69
2021/08/19 03:16:16;;;;;;;13.65;5.47;;;;;;;15.10;100.00;99842.26;1705658;84;21054;-69
2021/08/19 03:18:42;;;;;;;9.73;4.47;;;;;;;15.07;100.00;99838.48;1705820;83;21032;-68
2021/08/19 03:21:09;;;;;;;11.78;5.00;;;;;;;15.03;100.00;99838.27;1705890;83;21058;-68
2021/08/19 03:23:37;;;;;;;10.23;4.62;;;;;;;15.05;100.00;99849.64;1705892;84;21039;-68
2021/08/19 03:26:05;;;;;;;6.78;3.50;;;;;;;15.05;100.00;99849.16;1705831;83;21022;-68
2021/08/19 03:28:32;;;;;;;5.83;4.03;;;;;;;15.09;100.00;99857.33;1705891;84;21054;-68
2021/08/19 03:31:01;;;;;;;6.00;3.83;;;;;;;15.13;99.95;99857.13;1705789;84;21075;-69
2021/08/19 03:33:29;;;;;;;6.15;4.08;;;;;;;15.15;99.95;99852.11;1705798;83;21086;-70
2021/08/19 03:35:56;;;;;;;5.97;3.87;;;;;;;15.18;99.86;99854.56;1705639;84;21127;-68
2021/08/19 03:38:22;;;;;;;6.50;3.55;;;;;;;15.20;99.35;99854.48;1705685;83;21054;-70
2021/08/19 03:40:49;;;;;;;9.80;4.35;;;;;;;15.22;99.18;99858.75;1705927;84;21059;-70
2021/08/19 03:43:15;;;;;;;5.10;3.08;;;;;;;15.24;98.54;99868.80;1705565;83;21306;-69
2021/08/19 03:45:42;;;;;;;7.40;4.10;;;;;;;15.28;98.25;99868.99;1705628;83;21071;-69
2021/08/19 03:48:09;;;;;;;7.33;3.85;;;;;;;15.31;98.08;99870.60;1705469;83;21151;-68
2021/08/19 03:50:35;;;;;;;6.35;2.85;;;;;;;15.34;97.55;99868.23;1705490;84;21705;-68
2021/08/19 03:53:01;;;;;;;8.95;3.27;;;;;;;15.38;97.24;99868.44;1705721;83;21623;-68
2021/08/19 03:55:28;;;;;;;5.47;3.50;;;;;;;15.42;96.48;99865.98;1705683;84;21074;-69
2021/08/19 03:57:57;;;;;;;8.98;4.30;;;;;;;15.44;95.61;99864.09;1705369;83;21597;-68
2021/08/19 04:00:23;;;;;;;5.78;3.83;;;;;;;15.46;96.33;99867.47;1705359;83;21113;-72
2021/08/19 04:02:50;;;;;;;8.73;4.28;;;;;;;15.44;96.41;99861.44;1695070;84;21079;-72
2021/08/19 04:05:17;;;;;;;9.80;4.53;;;;;;;15.41;96.55;99861.60;1700815;84;21081;-74
2021/08/19 04:07:44;;;;;;;7.10;4.28;;;;;;;15.37;96.53;99867.59;1681539;84;21066;-73
2021/08/19 04:10:11;;;;;;;7.33;3.58;;;;;;;15.35;96.67;99855.37;1677349;85;21073;-74
2021/08/19 04:12:38;;;;;;;7.55;4.40;;;;;;;15.39;97.09;99858.19;1680770;84;21163;-74
2021/08/19 04:15:06;;;;;;;4.72;2.65;;;;;;;15.43;96.81;99859.71;1703486;84;21074;-73
2021/08/19 04:17:34;;;;;;;8.50;3.60;;;;;;;15.48;96.06;99859.83;1701543;83;21102;-73
2021/08/19 04:20:00;;;;;;;6.35;3.40;;;;;;;15.54;95.80;99861.23;1677010;84;21067;-71
2021/08/19 04:22:28;;;;;;;8.95;3.47;;;;;;;15.58;94.66;99857.45;1677286;84;21113;-72
2021/08/19 04:24:56;;;;;;;7.67;3.52;;;;;;;15.64;95.13;99857.05;1689170;84;21030;-71
2021/08/19 04:27:23;;;;;;;7.20;3.20;;;;;;;15.68;94.61;99855.91;1705560;83;21070;-73
2021/08/19 04:29:50;;;;;;;8.95;3.55;;;;;;;15.68;93.71;99862.55;1705351;83;21592;-72
2021/08/19 04:32:18;;;;;;;5.33;3.70;;;;;;;15.71;93.86;99862.41;1695229;84;21075;-72
2021/08/19 04:34:46;;;;;;;4.60;2.70;;;;;;;15.72;93.61;99860.12;1701152;83;21066;-72
2021/08/19 04:37:15;;;;;;;6.33;3.80;;;;;;;15.72;93.24;99866.76;1687424;84;21199;-71
2021/08/19 04:39:42;;;;;;;5.85;3.40;;;;;;;15.75;93.24;99864.38;1677321;85;21050;-72
2021/08/19 04:42:09;;;;;;;6.30;3.62;;;;;;;15.76;92.20;99858.59;1680826;84;21054;-72
2021/08/19 04:44:36;;;;;;;6.17;3.92;;;;;;;15.79;93.01;99866.38;1681546;84;21589;-72
2021/08/19 04:47:03;;;;;;;5.97;3.15;;;;;;;15.80;92.44;99854.31;1682957;84;21045;-71
2021/08/19 04:49:30;;;;;;;6.55;3.98;;;;;;;15.80;91.59;99864.09;1695821;83;21501;-72
2021/08/19 04:51:58;;;;;;;8.43;4.47;;;;;;;15.80;92.02;99858.78;1679921;84;21101;-73
2021/08/19 04:54:25;;;;;;;8.95;3.85;;;;;;;15.77;92.09;99856.33;1681957;84;21027;-72
2021/08/19 04:56:51;;;;;;;7.87;3.70;;;;;;;15.71;92.28;99855.77;1677722;84;21066;-72
2021/08/19 04:59:19;;;;;;;5.15;2.90;;;;;;;15.68;92.68;99865.20;1677461;84;21094;-73
2021/08/19 05:01:45;;;;;;;8.50;3.65;;;;;;;15.71;91.91;99868.17;1681811;84;21751;-73
2021/08/19 05:04:12;;;;;;;7.37;3.55;;;;;;;15.76;92.23;99869.20;1677288;85;21514;-72
2021/08/19 05:06:39;;;;;;;5.70;3.60;;;;;;;15.79;92.43;99877.00;1677521;84;21510;-71
2021/08/19 05:09:06;;;;;;;7.65;4.12;;;;;;;15.83;92.84;99874.55;1685107;84;21070;-72
2021/08/19 05:11:33;;;;;;;11.08;7.45;;;;;;;15.88;92.78;99871.11;1699321;84;21038;-73
2021/08/19 05:14:01;;;;;;;6.67;4.15;;;;;;;15.93;93.05;99866.36;1701623;84;21310;-73
2021/08/19 05:16:27;;;;;;;9.68;4.12;;;;;;;15.99;93.26;99863.77;1692644;83;21079;-71
2021/08/19 05:18:56;;;;;;;8.20;4.10;;;;;;;16.07;93.01;99866.80;1691040;84;21102;-72
2021/08/19 05:21:23;;;;;;;7.40;3.75;;;;;;;16.11;93.11;99863.86;1690120;83;21110;-72
2021/08/19 05:23:51;;;;;;;5.62;3.70;;;;;;;16.20;93.18;99853.60;1690532;83;21082;-71
2021/08/19 05:26:18;;;;;;;6.62;4.00;;;;;;;16.26;92.52;99856.69;1691609;84;21128;-73
2021/08/19 05:28:48;;;;;;;8.45;3.60;;;;;;;16.35;92.47;99855.23;1696194;83;21648;-73
2021/08/19 05:31:16;;;;;;;5.67;2.90;;;;;;;16.43;92.16;99858.27;1658967;84;21829;-72
2021/08/19 05:33:43;;;;;;;5.05;3.47;;;;;;;16.52;92.09;99868.29;1704183;84;21759;-72
2021/08/19 05:36:10;;;;;;;5.28;3.55;;;;;;;16.58;91.44;99869.67;1697835;83;21058;-72
2021/08/19 05:38:39;;;;;;;7.33;4.00;;;;;;;16.63;91.02;99877.34;1685516;84;21063;-71
2021/08/19 05:41:06;;;;;;;5.25;3.35;;;;;;;16.66;90.67;99890.45;1705449;84;21054;-71
2021/08/19 05:43:33;;;;;;;13.15;7.50;;;;;;;16.73;90.30;99887.77;1703050;83;21015;-71
2021/08/19 05:46:00;;;;;;;10.20;6.50;;;;;;;16.81;89.55;99888.13;1698518;83;21685;-72
2021/08/19 05:48:26;;;;;;;7.90;3.80;;;;;;;16.92;89.80;99878.10;1691185;84;21087;-71
2021/08/19 05:50:53;;;;;;;8.35;4.90;;;;;;;17.10;89.00;99876.02;1674817;85;21505;-72
2021/08/19 05:53:19;;;;;;;8.05;3.47;;;;;;;17.29;88.24;99873.78;1695008;84;21466;-73
2021/08/19 05:56:46;;;;;;;12.25;4.45;;;;;;;17.72;87.07;99861.46;1791220;78;22658;-72
2021/08/19 05:59:14;;;;;;;6.17;4.60;;;;;;;18.09;85.63;99870.84;1757803;80;21111;-72
2021/08/19 06:01:40;;;;;;;8.13;3.87;;;;;;;18.43;82.53;99871.05;1762022;80;21081;-73
2021/08/19 06:04:06;;;;;;;7.20;3.17;;;;;;;18.75;82.06;99873.11;1754497;80;21045;-72
2021/08/19 06:06:34;;;;;;;6.37;3.67;;;;;;;19.12;79.77;99869.02;1703483;82;21119;-75
2021/08/19 06:09:01;;;;;;;6.45;3.33;;;;;;;19.50;77.95;99858.88;1712146;82;21643;-72
2021/08/19 06:11:30;;;;;;;8.35;3.50;;;;;;;20.00;77.56;99859.03;1706962;82;21064;-71
2021/08/19 06:13:56;;;;;;;7.28;3.70;;;;;;;20.51;75.07;99861.09;1700617;82;21541;-71
2021/08/19 06:16:22;;;;;;;9.00;3.67;;;;;;;21.21;72.98;99870.41;1691606;84;21702;-73
2021/08/19 06:18:50;;;;;;;7.72;3.17;;;;;;;22.09;69.07;99860.11;1704669;83;21026;-73
2021/08/19 06:21:18;;;;;;;7.10;3.40;;;;;;;22.78;65.98;99860.06;1707217;84;21332;-72
2021/08/19 06:23:46;;;;;;;3.92;3.05;;;;;;;23.30;61.58;99856.20;1706683;84;21112;-73
2021/08/19 06:26:14;;;;;;;5.62;3.60;;;;;;;23.58;59.00;99852.59;1697000;84;21100;-71
2021/08/19 06:28:41;;;;;;;4.95;2.80;;;;;;;23.74;56.34;99845.72;1701558;82;21033;-71
2021/08/19 06:31:07;;;;;;;5.53;2.90;;;;;;;23.80;56.50;99843.31;1693204;84;21092;-73
2021/08/19 06:33:34;;;;;;;5.53;2.72;;;;;;;23.84;55.92;99853.28;1716609;83;21088;-74
2021/08/19 06:36:01;;;;;;;3.87;2.80;;;;;;;23.91;54.94;99850.34;1688695;84;21080;-73
2021/08/19 06:38:27;;;;;;;6.50;2.80;;;;;;;23.92;54.00;99842.61;1713922;82;21144;-72
2021/08/19 06:40:53;;;;;;;4.47;2.87;;;;;;;24.04;53.65;99852.20;1724917;82;21163;-70
2021/08/19 06:43:20;;;;;;;3.92;2.58;;;;;;;24.20;53.94;99850.66;1723897;83;21331;-72
2021/08/19 06:45:48;;;;;;;8.03;2.98;;;;;;;24.24;53.09;99852.06;1718539;83;21120;-72
2021/08/19 06:48:14;;;;;;;5.58;2.65;;;;;;;24.37;53.12;99853.89;1706131;83;21185;-72
2021/08/19 06:50:41;;;;;;;5.58;3.00;;;;;;;24.58;50.27;99860.86;1698297;83;21910;-73
2021/08/19 06:53:08;;;;;;;4.67;2.77;;;;;;;24.74;50.63;99861.00;1694797;84;21108;-72
2021/08/19 06:55:34;;;;;;;4.90;2.40;;;;;;;24.95;50.70;99856.63;1699954;83;21049;-71
2021/08/19 06:58:01;;;;;;;7.03;2.65;;;;;;;25.12;49.45;99856.24;1685384;83;21072;-72
2021/08/19 07:00:27;;;;;;;7.60;2.60;;;;;;;25.44;49.20;99852.11;1694076;83;21557;-73
2021/08/19 07:02:54;;;;;;;7.22;2.98;;;;;;;25.74;48.90;99855.66;1740060;81;21147;-74
2021/08/19 07:05:20;;;;;;;7.22;3.12;;;;;;;26.09;47.70;99856.98;1740373;82;21073;-72
2021/08/19 07:07:48;;;;;;;5.00;2.40;;;;;;;26.28;47.59;99858.06;1726921;82;21070;-72
2021/08/19 07:10:14;;;;;;;3.92;2.30;;;;;;;26.41;46.95;99864.35;1733858;82;21022;-73
2021/08/19 07:12:41;;;;;;;7.37;3.22;;;;;;;26.54;46.00;99864.72;1747157;81;21074;-72
2021/08/19 07:15:09;;;;;;;5.97;2.92;;;;;;;26.58;44.71;99867.95;1727060;82;21861;-72
2021/08/19 07:17:35;;;;;;;7.62;2.65;;;;;;;26.41;44.83;99864.35;1714230;82;21564;-72
2021/08/19 07:20:05;;;;;;;8.85;3.10;;;;;;;26.34;46.38;99857.90;1702492;83;21063;-74
2021/08/19 07:22:31;;;;;;;5.30;2.62;;;;;;;26.30;46.65;99852.52;1733621;82;21055;-74
2021/08/19 07:24:59;;;;;;;5.20;2.50;;;;;;;26.30;45.67;99851.17;1737868;82;21103;-74
2021/08/19 07:27:27;;;;;;;6.80;2.95;;;;;;;26.38;46.16;99847.95;1741395;82;21674;-74
2021/08/19 07:29:53;;;;;;;6.62;3.27;;;;;;;26.37;45.32;99848.98;1742604;82;21091;-73
2021/08/19 07:32:20;;;;;;;5.17;2.87;;;;;;;26.43;45.68;99846.10;1738189;82;21368;-74
2021/08/19 07:34:47;;;;;;;5.05;2.85;;;;;;;26.49;44.81;99845.45;1739345;82;21585;-73
2021/08/19 07:37:15;;;;;;;7.03;3.10;;;;;;;26.52;44.50;99848.32;1740760;82;21062;-73
2021/08/19 07:39:41;;;;;;;7.25;3.08;;;;;;;26.58;45.71;99847.70;1738867;82;21552;-73
2021/08/19 07:42:10;;;;;;;5.58;2.90;;;;;;;26.68;43.87;99848.87;1739568;82;21099;-72
2021/08/19 07:44:36;;;;;;;9.75;3.50;;;;;;;26.40;44.93;99845.09;1742703;82;21063;-74
2021/08/19 07:47:03;;;;;;;9.70;3.98;;;;;;;26.23;45.58;99836.64;1741523;82;21158;-72
2021/08/19 07:49:29;;;;;;;5.55;2.83;;;;;;;25.87;46.13;99832.81;1735440;82;21063;-72
2021/08/19 07:51:57;;;;;;;5.58;3.22;;;;;;;25.81;47.30;99840.16;1742935;82;21608;-73
2021/08/19 07:54:24;;;;;;;5.05;2.87;;;;;;;25.99;46.31;99840.94;1741014;81;21016;-73
2021/08/19 07:56:50;;;;;;;5.12;2.85;;;;;;;26.00;45.94;99843.99;1738849;82;21063;-73
2021/08/19 07:59:18;;;;;;;5.58;2.65;;;;;;;26.22;45.85;99847.08;1741945;82;21066;-72
2021/08/19 08:01:46;;;;;;;6.03;2.98;;;;;;;26.42;44.96;99859.28;1741705;82;21104;-74
2021/08/19 08:04:12;;;;;;;4.47;2.90;;;;;;;26.62;44.60;99858.98;1743055;82;22395;-72
2021/08/19 08:06:39;;;;;;;5.70;3.20;;;;;;;26.83;43.26;99862.06;1723439;82;21061;-74
2021/08/19 08:09:07;;;;;;;5.62;3.20;;;;;;;26.98;43.50;99857.65;1738132;82;21095;-73
2021/08/19 08:11:33;;;;;;;4.55;2.77;;;;;;;27.12;42.90;99852.06;1741915;82;21106;-76
2021/08/19 08:14:01;;;;;;;5.50;3.00;;;;;;;27.06;42.38;99861.39;1742908;82;21031;-74
2021/08/19 08:16:28;;;;;;;7.47;3.00;;;;;;;26.95;42.51;99855.30;1742453;82;21529;-73
2021/08/19 08:18:55;;;;;;;8.68;2.95;;;;;;;26.94;42.67;99850.92;1741391;82;21067;-73
2021/08/19 08:21:22;;;;;;;8.73;3.15;;;;;;;26.98;42.43;99846.84;1742274;82;21063;-72
2021/08/19 08:23:53;;;;;;;8.25;3.35;;;;;;;27.17;42.19;99841.61;1742083;82;21365;-73
2021/08/19 08:26:18;;;;;;;6.12;2.92;;;;;;;27.59;41.23;99851.34;1739859;81;21043;-73
2021/08/19 08:28:48;;;;;;;5.28;3.00;;;;;;;28.01;40.25;99839.36;1742403;82;21058;-73
2021/08/19 08:31:13;;;;;;;8.33;3.62;;;;;;;28.48;38.92;99834.87;1745066;82;21108;-75
2021/08/19 08:33:40;;;;;;;7.17;3.22;;;;;;;28.74;37.53;99835.04;1741257;82;21102;-73
2021/08/19 08:36:08;;;;;;;12.45;3.50;;;;;;;28.82;38.42;99836.31;1743719;82;21067;-75
2021/08/19 08:38:36;;;;;;;4.58;3.27;;;;;;;28.99;37.70;99841.93;1741747;82;21574;-73
2021/08/19 08:41:03;;;;;;;6.85;3.40;;;;;;;29.02;36.61;99841.55;1742053;82;22142;-72
2021/08/19 08:43:32;;;;;;;6.37;3.33;;;;;;;29.16;38.14;99833.16;1742491;82;21019;-74
2021/08/19 08:45:59;;;;;;;4.70;3.60;;;;;;;29.32;36.83;99825.36;1729556;82;21043;-73
2021/08/19 08:48:26;;;;;;;7.60;3.60;;;;;;;29.21;36.66;99825.81;1728107;82;21094;-73
2021/08/19 08:50:56;;;;;;;5.92;3.33;;;;;;;28.96;37.91;99831.44;1740433;82;21023;-74
2021/08/19 08:53:25;;;;;;;6.20;3.55;;;;;;;28.61;37.82;99833.77;1735846;82;21035;-74
2021/08/19 08:55:53;;;;;;;9.68;3.75;;;;;;;28.30;37.82;99828.87;1743517;82;21558;-75
2021/08/19 08:58:21;;;;;;;14.33;4.15;;;;;;;28.04;38.48;99836.80;1731886;82;21541;-73
2021/08/19 09:00:47;;;;;;;6.95;4.20;;;;;;;28.11;37.95;99834.23;1723238;82;21097;-71
2021/08/19 09:03:16;;;;;;;5.75;2.98;;;;;;;28.32;38.00;99830.41;1715248;82;21655;-73
2021/08/19 09:05:45;;;;;;;19.15;5.22;;;;;;;28.72;35.72;99830.31;1729596;82;21123;-73
2021/08/19 09:08:14;;;;;;;14.78;4.83;;;;;;;29.20;36.11;99832.28;1741810;82;21601;-74
2021/08/19 09:10:42;;;;;;;5.90;3.62;;;;;;;29.43;34.50;99818.65;1740528;82;21686;-75
2021/08/19 09:13:14;;;;;;;15.45;4.30;;;;;;;29.54;32.70;99815.47;1726860;82;21570;-73
2021/08/19 09:15:42;;;;;;;8.65;4.20;;;;;;;29.65;33.86;99806.83;1702984;83;20999;-75
2021/08/19 09:18:09;;;;;;;6.00;3.45;;;;;;;29.87;33.76;99803.70;1742373;82;21076;-73
2021/08/19 09:20:42;;;;;;;8.35;4.20;;;;;;;29.77;32.22;99800.46;1724661;81;21075;-73
2021/08/19 09:23:12;;;;;;;6.65;4.20;;;;;;;29.54;32.49;99792.90;1740889;80;21106;-73
2021/08/19 09:25:42;;;;;;;7.42;4.25;;;;;;;29.12;32.88;99787.09;1731807;82;21099;-73
2021/08/19 09:28:22;;;;;;;6.33;4.00;;;;;;;28.52;34.33;99786.09;1741101;82;21086;-75
2021/08/19 09:31:04;;;;;;;6.42;4.17;;;;;;;28.15;34.48;99786.33;1718973;82;21112;-74
2021/08/19 09:33:33;;;;;;;6.70;4.28;;;;;;;27.77;35.03;99790.24;1712922;82;21124;-75
2021/08/19 09:36:01;;;;;;;7.05;4.25;;;;;;;27.35;35.70;99789.20;1726381;82;21348;-73
2021/08/19 09:38:42;;;;;;;8.50;4.50;;;;;;;27.04;36.86;99791.28;1721081;82;22451;-75
2021/08/19 09:41:14;;;;;;;6.50;4.33;;;;;;;26.88;36.63;99792.15;1720259;82;21093;-76
2021/08/19 09:43:46;;;;;;;9.68;4.78;;;;;;;26.65;37.23;99798.74;1732847;82;21123;-77
2021/08/19 09:46:15;;;;;;;13.60;4.28;;;;;;;26.58;37.75;99798.57;1733694;82;21097;-74
2021/08/19 09:48:44;;;;;;;8.03;4.28;;;;;;;26.63;37.30;99791.31;1735185;81;21073;-75
2021/08/19 09:51:19;;;;;;;5.67;3.67;;;;;;;26.80;36.66;99784.03;1732080;82;21037;-77
2021/08/19 09:53:52;;;;;;;8.20;4.30;;;;;;;27.04;36.00;99791.80;1704556;83;21051;-77
2021/08/19 09:56:39;;;;;;;6.80;3.85;;;;;;;27.40;35.06;99789.03;1742062;81;21683;-76
2021/08/19 09:59:23;;;;;;;6.25;4.12;;;;;;;27.73;34.49;99792.95;1748626;82;21049;-77
2021/08/19 10:01:53;;;;;;;7.05;3.58;;;;;;;27.94;34.18;99794.25;1748115;81;21068;-78
2021/08/19 10:04:21;;;;;;;6.45;4.15;;;;;;;28.08;34.25;99796.70;1745761;82;21397;-77
2021/08/19 10:06:47;;;;;;;6.72;3.83;;;;;;;28.43;32.39;99783.08;1750421;81;21085;-77
2021/08/19 10:09:15;;;;;;;7.45;3.60;;;;;;;28.65;33.16;99786.33;1743710;81;21942;-78
2021/08/19 10:11:44;;;;;;;7.85;3.70;;;;;;;28.87;32.22;99787.81;1743890;81;21093;-77
2021/08/19 10:14:27;;;;;;;7.55;3.52;;;;;;;29.04;32.01;99792.06;1743841;81;21596;-76
2021/08/19 10:16:54;;;;;;;8.20;4.10;;;;;;;29.03;32.18;99785.47;1704556;83;21763;-78
2021/08/19 10:19:33;;;;;;;5.20;3.20;;;;;;;29.05;31.47;99784.77;1688251;84;21152;-78
2021/08/19 10:22:16;;;;;;;5.12;3.72;;;;;;;29.09;31.18;99788.00;1706805;82;21142;-77
2021/08/19 10:24:48;;;;;;;13.55;3.77;;;;;;;29.07;30.97;99782.23;1703999;82;21075;-73
2021/08/19 10:27:22;;;;;;;4.72;3.30;;;;;;;28.96;30.32;99781.30;1743715;81;21007;-81
2021/08/19 10:29:54;;;;;;;8.85;3.83;;;;;;;28.77;30.48;99785.89;1742351;81;21121;-77
2021/08/19 10:32:38;;;;;;;5.50;3.30;;;;;;;28.82;30.52;99776.69;1673706;85;21144;-77
2021/08/19 10:35:11;;;;;;;7.05;3.27;;;;;;;28.94;31.18;99777.95;1741097;82;21131;-75
2021/08/19 10:37:54;;;;;;;5.87;3.15;;;;;;;29.11;29.52;99784.07;1747997;82;21037;-75
2021/08/19 10:40:34;;;;;;;9.60;4.15;;;;;;;29.30;29.06;99779.95;1747830;81;21171;-75
2021/08/19 10:43:35;;;;;;;5.60;3.60;;;;;;;29.37;29.91;99782.25;1748419;81;21481;-76
2021/08/19 10:46:10;;;;;;;6.85;3.00;;;;;;;29.39;29.29;99778.84;1736955;82;21081;-75
2021/08/19 10:48:51;;;;;;;6.83;3.20;;;;;;;29.34;29.29;99774.49;1682652;85;21135;-75
2021/08/19 10:51:18;;;;;;;6.95;3.35;;;;;;;29.20;28.97;99784.83;1747411;82;21053;-77
2021/08/19 10:53:48;;;;;;;7.40;3.72;;;;;;;28.94;29.27;99786.08;1728117;82;21416;-75
2021/08/19 10:56:45;;;;;;;8.45;3.67;;;;;;;28.64;29.90;99786.02;1732322;82;21092;-77
2021/08/19 10:59:32;;;;;;;4.83;3.50;;;;;;;28.48;30.57;99777.16;1703993;83;21104;-78
2021/08/19 11:02:02;;;;;;;5.78;3.80;;;;;;;28.57;30.23;99779.61;1746077;82;21127;-75
2021/08/19 11:04:44;;;;;;;4.67;3.30;;;;;;;28.69;30.14;99779.18;1732489;82;21074;-76
2021/08/19 11:07:11;;;;;;;11.50;3.25;;;;;;;28.65;30.19;99779.55;1747411;81;21007;-76
2021/08/19 11:09:38;;;;;;;15.48;4.70;;;;;;;28.64;29.70;99786.02;1725032;82;21538;-77
2021/08/19 11:12:06;;;;;;;6.75;3.62;;;;;;;28.68;29.10;99789.70;1728427;82;21034;-76
2021/08/19 11:14:33;;;;;;;5.80;3.00;;;;;;;28.82;29.65;99795.66;1740876;82;22124;-78
2021/08/19 11:17:01;;;;;;;6.75;3.08;;;;;;;29.01;27.69;99793.80;1713269;82;21041;-76
2021/08/19 11:19:30;;;;;;;6.60;3.10;;;;;;;29.18;27.33;99789.59;1723012;82;21038;-77
2021/08/19 11:22:04;;;;;;;5.58;3.40;;;;;;;29.36;27.18;99784.64;1747438;81;21040;-76
2021/08/19 11:24:33;;;;;;;4.35;3.12;;;;;;;29.47;28.17;99786.89;1750595;82;21009;-78
2021/08/19 11:27:06;;;;;;;4.08;2.80;;;;;;;29.61;27.81;99793.33;1749687;82;21037;-79
2021/08/19 11:29:43;;;;;;;13.00;3.72;;;;;;;29.67;26.71;99776.80;1749727;82;21048;-76
2021/08/19 11:32:13;;;;;;;7.50;3.35;;;;;;;29.56;27.94;99778.63;1762670;81;21568;-77
2021/08/19 11:34:46;;;;;;;7.95;3.37;;;;;;;29.35;27.28;99777.52;1762970;81;21510;-76
2021/08/19 11:37:31;;;;;;;4.05;3.12;;;;;;;29.10;27.92;99781.53;1737383;81;21063;-77
2021/08/19 11:39:59;;;;;;;5.33;3.40;;;;;;;28.96;28.39;99775.87;1685896;85;21148;-75